KNRB/NRB METAR and TAF weather

Enter ICAO airport designator
Station Type Date Time Source
KNRB METAR 2020/11/27 13:52 UTC NOAA

KNRB 271352Z 26003KT 10SM FEW020 SCT180 BKN250 21/19 A3014 RMK AO2 SLP205 T02060189


Station Type Date Time Source
KNRB Decoded METAR 2020/11/27 13:52 UTC NOAA

MAYPORT NAVAL AIR FACILITY, FL, United States (KNRB) 30-24N 81-25W 4M
Nov 27, 2020 - 08:52 AM EST / 2020.11.27 1352 UTC
Wind: from the W (260 degrees) at 3 MPH (3 KT):0
Visibility: 10 mile(s):0
Sky conditions: mostly cloudy
Temperature: 69.1 F (20.6 C)
Dew Point: 66.0 F (18.9 C)
Relative Humidity: 89%
Pressure (altimeter): 30.14 in. Hg (1020 hPa)
ob: KNRB 271352Z 26003KT 10SM FEW020 SCT180 BKN250 21/19 A3014 RMK AO2 SLP205 T02060189
cycle: 14

Station Type Date Time Source
KNRB TAF 2020/11/27 07:57 UTC NOAA

TAF TAF COR KNRB 2707/2807 VRB05KT 9999 FEW025 SCT050 BKN200 QNH3003INS
BECMG 2718/2720 VRB04KT 9999 SCT025 BKN050 QNH2999INS T18/2711Z T27/2720Z COR 0741 FN00205

Example: see airport list